Thomas, New Mexico
Current Conditions -  °F | °C
As of 8:55 PM on Friday 31 Oct 2014 (Local Time) from KCAO Reporting Station
Clear Clear  
Wind Chill: 40°   Ceiling: Unl
Heat Index: 46°   Visibility: 10mi
Dew Point: 29°   Wind: 14mph
Humidity: 51%   Direction: 180°S
Pressure: 30.28"   Gusts: NA
Location:  36.2639°N, 103.376°W
Report Text: KCAO 010255Z AUTO 18012KT 10SM CLR 08/M02 A3028 RMK AO2 SLP241 T00781017 55002
Loading
Personal Weather Stations






























Interactive Weather Map New forecast layout! Learn more

10-Day Weather Forecast

Advertisements
Track Severe Weather on mobile